tititudorancea.com
Station Historical Data
Daily Summary for April 30, 2018 Units:  Metric    English   Both
« Previous Day
Next Day »
Daily Weekly Monthly Yearly Custom
  High: Low: Average:
Temperature: -17.8 °C 5.8 °C 13.2 °C
Dew Point: -17.8 °C -5.4 °C 4.4 °C
Humidity: Humidity % 16 % 64 %
Wind Speed: 0 km/h 0 km/h 3.5 km/h
Wind Gust: 0 km/h - -
Wind:- - SSE
Pressure: 0 hPa 1025.3 hPa -
Precipitation: 0 mm    
Historical Graphs
 
 
Ararat weather Find more about Weather in Ararat, AU


 



 


Tabular Data for April 30, 2018
Time Temperature Dew Point Pressure Wind Wind Speed Wind Gust Humidity Rainfall Rate (Hourly)
-17.8 °C -17.8 °C 0 hPa Calm     Humidity % 0 mm
00:03 9.6 °C 8.5 °C 1028.3 hPa South 9.7 km/h 14.8 km/h 93 % 0 mm
00:08 9.6 °C 8.6 °C 1028 hPa South 8.7 km/h 14.8 km/h 93 % 0 mm
00:13 9.7 °C 8.6 °C 1028 hPa South 6.1 km/h 6.1 km/h 93 % 0 mm
00:18 9.7 °C 8.8 °C 1028 hPa South 6.8 km/h 13 km/h 94 % 0 mm
00:23 9.8 °C 8.8 °C 1028 hPa South 5.8 km/h 5.8 km/h 94 % 0 mm
00:28 9.8 °C 8.9 °C 1028 hPa SSW 5.5 km/h 8 km/h 94 % 0 mm
00:33 9.9 °C 9 °C 1028 hPa North 3.5 km/h 9.3 km/h 94 % 0 mm
00:38 10.1 °C 9.1 °C 1028 hPa SSW 6.8 km/h 11.1 km/h 94 % 0 mm
00:43 10.1 °C 9.2 °C 1028 hPa North 6.1 km/h 14.8 km/h 94 % 0 mm
00:48 10.2 °C 9.2 °C 1028 hPa SSW 9.7 km/h 14.5 km/h 94 % 0 mm
00:53 10.2 °C 9.3 °C 1028 hPa SSW 5.8 km/h 9.3 km/h 94 % 0 mm
00:58 10.2 °C 9.3 °C 1028 hPa South 8.5 km/h 13 km/h 94 % 0 mm
01:03 10.2 °C 9.3 °C 1028 hPa South 6.1 km/h 13 km/h 94 % 0 mm
01:08 10.2 °C 9.4 °C 1028 hPa South 4.5 km/h 9.3 km/h 95 % 0 mm
01:13 10.2 °C 9.4 °C 1028 hPa South 8.2 km/h 11.1 km/h 95 % 0 mm
01:18 10.2 °C 9.4 °C 1028 hPa North 5.3 km/h 7.4 km/h 95 % 0 mm
01:23 10.2 °C 9.4 °C 1028 hPa North 6.6 km/h 9.3 km/h 95 % 0 mm
01:28 10.3 °C 9.5 °C 1028 hPa North 4.3 km/h 7.4 km/h 95 % 0 mm
01:33 10.3 °C 9.5 °C 1028 hPa South 7.2 km/h 14.8 km/h 95 % 0 mm
01:38 10.3 °C 9.5 °C 1028 hPa South 7.4 km/h 11.1 km/h 95 % 0 mm
01:43 10.3 °C 9.6 °C 1027.7 hPa South 9 km/h 13 km/h 95 % 0 mm
01:48 10.3 °C 9.6 °C 1027.7 hPa South 8.4 km/h 13 km/h 95 % 0 mm
01:53 10.3 °C 9.6 °C 1027.7 hPa South 9 km/h 12.9 km/h 95 % 0 mm
01:58 10.3 °C 9.6 °C 1027.7 hPa South 8.4 km/h 12.9 km/h 95 % 0 mm
02:03 10.3 °C 9.6 °C 1027.7 hPa South 6.3 km/h 7.4 km/h 95 % 0 mm
02:08 10.3 °C 9.5 °C 1027.7 hPa South 9.8 km/h 18.5 km/h 95 % 0 mm
02:13 10.3 °C 9.5 °C 1027.7 hPa South 6.6 km/h 13 km/h 95 % 0 mm
02:19 10.3 °C 9.5 °C 1027.7 hPa South 10 km/h 16.7 km/h 95 % 0 mm
02:24 10.3 °C 9.5 °C 1027.7 hPa South 14 km/h 20.4 km/h 95 % 0 mm
02:28 10.2 °C 9.4 °C 1027.7 hPa South 10 km/h 11.3 km/h 95 % 0 mm
02:34 10.3 °C 9.5 °C 1027.3 hPa South 11.3 km/h 18.5 km/h 95 % 0 mm
02:39 10.3 °C 9.6 °C 1027.3 hPa South 7.2 km/h 12.9 km/h 95 % 0 mm
02:44 10.3 °C 9.4 °C 1027.3 hPa South 7.1 km/h 14.8 km/h 94 % 0 mm
02:49 10.3 °C 9.4 °C 1027.3 hPa South 9.3 km/h 18.5 km/h 94 % 0 mm
02:54 10.3 °C 9.3 °C 1027.3 hPa South 9.3 km/h 13 km/h 94 % 0 mm
02:59 10.3 °C 9.4 °C 1027.3 hPa SSE 3.2 km/h 11.1 km/h 94 % 0 mm
03:04 10.3 °C 9.4 °C 1027.3 hPa SSE 10.5 km/h 13 km/h 94 % 0 mm
03:09 10.4 °C 9.4 °C 1027.3 hPa South 5.6 km/h 9.3 km/h 94 % 0 mm
03:14 10.4 °C 9.4 °C 1027.3 hPa SSE 7.9 km/h 13 km/h 94 % 0 mm
03:19 10.4 °C 9.3 °C 1027.3 hPa SSE 7.6 km/h 9.7 km/h 93 % 0 mm
03:24 10.4 °C 9.3 °C 1027 hPa SSE 5.5 km/h 9.3 km/h 93 % 0 mm
03:29 10.4 °C 9.3 °C 1027 hPa SSE 5.6 km/h 11.1 km/h 93 % 0 mm
03:34 10.4 °C 9.3 °C 1027 hPa SSE 9.3 km/h 9.7 km/h 93 % 0 mm
03:39 10.4 °C 9.2 °C 1027 hPa SSE 7.4 km/h 11.1 km/h 92 % 0 mm
03:44 10.4 °C 9.2 °C 1027 hPa SSE 12.1 km/h 12.9 km/h 92 % 0 mm
03:49 10.4 °C 9.2 °C 1027.3 hPa SSE 8.9 km/h 13 km/h 92 % 0 mm
03:54 10.4 °C 9.2 °C 1027.3 hPa SSE 7.6 km/h 13 km/h 92 % 0 mm
03:59 10.5 °C 9.3 °C 1027.3 hPa SSE 8.4 km/h 14.8 km/h 92 % 0 mm
04:04 10.5 °C 9.3 °C 1027 hPa SSE 6.8 km/h 9.3 km/h 92 % 0 mm
04:09 10.5 °C 9.1 °C 1027 hPa SSE 3.9 km/h 7.4 km/h 91 % 0 mm
04:14 10.6 °C 9.2 °C 1027 hPa SSE 8.4 km/h 9.7 km/h 91 % 0 mm
04:19 10.5 °C 9.1 °C 1027 hPa SSE 7.6 km/h 9.3 km/h 91 % 0 mm
04:24 10.5 °C 9.1 °C 1027 hPa SSE 8.9 km/h 11.1 km/h 91 % 0 mm
04:29 10.4 °C 9.1 °C 1027 hPa SSE 3.7 km/h 5.6 km/h 91 % 0 mm
04:34 10.4 °C 9.1 °C 1027 hPa SSE 6 km/h 9.7 km/h 91 % 0 mm
04:39 10.4 °C 8.8 °C 1027 hPa SSE 8.5 km/h 11.1 km/h 90 % 0 mm
04:44 10.3 °C 8.7 °C 1026.6 hPa SSE 10.1 km/h 13 km/h 90 % 0 mm
04:49 10.3 °C 8.9 °C 1026.6 hPa SSE 6.9 km/h 11.1 km/h 91 % 0 mm
04:54 10.3 °C 8.9 °C 1026.6 hPa SSE 4 km/h 6.4 km/h 91 % 0 mm
04:59 10.3 °C 8.9 °C 1026.6 hPa SSE 8.2 km/h 9.7 km/h 91 % 0 mm
05:04 10.2 °C 8.8 °C 1027 hPa SSE 3.2 km/h 6.4 km/h 91 % 0 mm
05:09 10.2 °C 8.8 °C 1027 hPa SSE 1.6 km/h 1.6 km/h 91 % 0 mm
05:14 10.3 °C 8.9 °C 1027 hPa SSE 6.1 km/h 9.3 km/h 91 % 0 mm
05:19 10.3 °C 8.9 °C 1027 hPa SSE 5.1 km/h 6.4 km/h 91 % 0 mm
05:24 10.3 °C 8.9 °C 1027 hPa SSE 6.3 km/h 9.3 km/h 91 % 0 mm
05:29 10.3 °C 8.9 °C 1027 hPa SSE 2.9 km/h 6.4 km/h 91 % 0 mm
05:34 10.2 °C 8.8 °C 1027.3 hPa SSE 4.3 km/h 7.4 km/h 91 % 0 mm
05:39 10.2 °C 8.8 °C 1027.3 hPa SSE 6.8 km/h 13 km/h 91 % 0 mm
05:44 10.2 °C 8.8 °C 1027.3 hPa SSE 7.6 km/h 9.3 km/h 91 % 0 mm
05:49 10.2 °C 8.8 °C 1027.3 hPa SSE 7.4 km/h 11.1 km/h 91 % 0 mm
05:54 10.2 °C 8.8 °C 1027.3 hPa SSE 6.3 km/h 12.9 km/h 91 % 0 mm
05:59 10.2 °C 8.8 °C 1027.3 hPa SSE 4.5 km/h 7.4 km/h 91 % 0 mm
06:04 10.2 °C 8.8 °C 1027.3 hPa SSE 10.8 km/h 16.7 km/h 91 % 0 mm
06:09 10.2 °C 8.8 °C 1027.3 hPa SSE 9.3 km/h 11.1 km/h 91 % 0 mm
06:14 10.1 °C 8.7 °C 1027.3 hPa North 7.9 km/h 11.1 km/h 91 % 0 mm
06:19 10.1 °C 8.7 °C 1027 hPa SSE 5.5 km/h 7.4 km/h 91 % 0 mm
06:20 10.1 °C 8.7 °C 1027 hPa SSE 4.8 km/h 7.4 km/h 91 % 0 mm
06:25 10.1 °C 8.7 °C 1027 hPa SSE 9.3 km/h 11.1 km/h 91 % 0 mm
06:30 10.1 °C 8.7 °C 1027.3 hPa SSE 5.6 km/h 7.4 km/h 91 % 0 mm
06:35 10.2 °C 8.8 °C 1027 hPa SSE 2.4 km/h 5.6 km/h 91 % 0 mm
06:40 10.2 °C 8.8 °C 1027 hPa SSE 7.4 km/h 9.3 km/h 91 % 0 mm
06:45 10.2 °C 8.8 °C 1027 hPa SSE 6.4 km/h 8 km/h 91 % 0 mm
06:50 10.2 °C 8.8 °C 1027 hPa SSE 8.9 km/h 9.3 km/h 91 % 0 mm
06:55 10.2 °C 8.8 °C 1027 hPa SSE 7.9 km/h 9.3 km/h 91 % 0 mm
07:00 10.1 °C 8.7 °C 1027 hPa SSE 7.9 km/h 7.9 km/h 91 % 0 mm
07:05 10.1 °C 8.7 °C 1027 hPa SSE 6.1 km/h 8 km/h 91 % 0 mm
07:10 10 °C 8.6 °C 1027 hPa SSE 4.2 km/h 9.3 km/h 91 % 0 mm
07:15 10 °C 8.6 °C 1027 hPa SSE 6.1 km/h 11.1 km/h 91 % 0 mm
07:20 10 °C 8.6 °C 1027.3 hPa SSE 8 km/h 11.1 km/h 91 % 0 mm
07:25 9.9 °C 8.6 °C 1027.3 hPa SSE 7.4 km/h 9.3 km/h 91 % 0 mm
07:30 9.9 °C 8.5 °C 1027.3 hPa Calm   1.9 km/h 91 % 0 mm
07:35 9.9 °C 8.5 °C 1027.3 hPa SSE 2.1 km/h 5.6 km/h 91 % 0 mm
07:40 9.9 °C 8.5 °C 1027.3 hPa SSE 3.2 km/h 6.4 km/h 91 % 0 mm
07:45 9.9 °C 8.5 °C 1027.7 hPa SSE 4.3 km/h 11.1 km/h 91 % 0 mm
07:50 9.9 °C 8.7 °C 1027.7 hPa Calm     92 % 0 mm
07:55 9.9 °C 8.7 °C 1027.7 hPa SSE 1 km/h 5.6 km/h 92 % 0 mm
08:00 9.9 °C 8.7 °C 1027.7 hPa Calm   1.9 km/h 92 % 0 mm
08:05 9.9 °C 8.7 °C 1027.7 hPa Calm   1.9 km/h 92 % 0 mm
08:10 10 °C 8.6 °C 1027.7 hPa SSE 3.2 km/h 5.6 km/h 91 % 0 mm
08:15 9.9 °C 8.6 °C 1027.7 hPa SSE 2.7 km/h 3.7 km/h 91 % 0 mm
08:20 9.9 °C 8.5 °C 1028 hPa Calm     91 % 0 mm
08:25 9.9 °C 8.5 °C 1028 hPa SSE 5.5 km/h 6.4 km/h 91 % 0 mm
08:30 9.9 °C 8.5 °C 1028 hPa Calm   3.7 km/h 91 % 0 mm
08:35 9.8 °C 8.4 °C 1028 hPa SSE 5.3 km/h 6.4 km/h 91 % 0 mm
08:40 9.8 °C 8.4 °C 1028.3 hPa Calm     91 % 0 mm
08:45 9.9 °C 8.5 °C 1028.3 hPa SSE 5.6 km/h 5.6 km/h 91 % 0 mm
08:50 9.8 °C 8.4 °C 1028.3 hPa SSE 1.9 km/h 5.6 km/h 91 % 0 mm
08:55 9.8 °C 8.4 °C 1028.3 hPa SSE 0.8 km/h 3.7 km/h 91 % 0 mm
09:00 9.9 °C 8.5 °C 1028.3 hPa SSE 0.6 km/h 3.7 km/h 91 % 0 mm
09:05 9.9 °C 8.6 °C 1028.3 hPa SSE 0.5 km/h 3.2 km/h 91 % 0 mm
09:10 10 °C 8.6 °C 1028.3 hPa Calm   1.9 km/h 91 % 0 mm
09:15 10 °C 8.6 °C 1028.3 hPa Calm     91 % 0 mm
09:20 10 °C 8.6 °C 1028.3 hPa Calm     91 % 0 mm
09:25 10.2 °C 8.8 °C 1028.3 hPa SSE 5.3 km/h 7.4 km/h 91 % 0 mm
09:30 10.2 °C 8.8 °C 1028.3 hPa SSE 0.8 km/h 3.7 km/h 91 % 0 mm
09:35 10.6 °C 9.2 °C 1028.3 hPa SSE 4.5 km/h 5.6 km/h 91 % 0 mm
09:40 10.8 °C 9.3 °C 1028.7 hPa SSE 1.3 km/h 5.6 km/h 90 % 0 mm
09:45 11.1 °C 9.6 °C 1028.7 hPa SSE 2.9 km/h 5.6 km/h 90 % 0 mm
09:50 11.6 °C 9.6 °C 1028.7 hPa Calm   3.7 km/h 88 % 0 mm
09:55 11.9 °C 9.7 °C 1028.7 hPa SSE 3.1 km/h 5.6 km/h 86 % 0 mm
10:00 12.3 °C 9.9 °C 1028.7 hPa SSE 1 km/h 5.6 km/h 85 % 0 mm
10:05 12.7 °C 9.8 °C 1028.7 hPa SSE 4.7 km/h 6.4 km/h 83 % 0 mm
10:10 12.9 °C 9.6 °C 1028.7 hPa SSE 6.8 km/h 8 km/h 80 % 0 mm
10:15 12.9 °C 9.4 °C 1028.7 hPa SSE 2.3 km/h 5.6 km/h 79 % 0 mm
10:20 13.2 °C 9.8 °C 1028.7 hPa Calm   3.7 km/h 80 % 0 mm
10:26 13.7 °C 9.5 °C 1028.7 hPa SSE 1.6 km/h 5.6 km/h 76 % 0 mm
10:31 14 °C 9.2 °C 1028.7 hPa SSE 0.3 km/h 5.6 km/h 73 % 0 mm
10:36 14.3 °C 9.2 °C 1028.7 hPa Calm   3.7 km/h 71 % 0 mm
10:41 14.5 °C 9.3 °C 1028.7 hPa SSE 1.3 km/h 3.7 km/h 71 % 0 mm
10:46 14.7 °C 9.5 °C 1028.7 hPa SSE 5 km/h 5.6 km/h 71 % 0 mm
10:51 14.8 °C 9.3 °C 1028.3 hPa SSE 0.8 km/h 3.7 km/h 70 % 0 mm
10:56 15.4 °C 9.3 °C 1028.3 hPa SSE 0.3 km/h 3.7 km/h 67 % 0 mm
11:01 15.9 °C 8.7 °C 1028.3 hPa SSE 1.4 km/h 3.7 km/h 62 % 0 mm
11:06 16.1 °C 8.6 °C 1028.7 hPa SSE 2.6 km/h 3.2 km/h 61 % 0 mm
11:11 16.4 °C 8.1 °C 1028.3 hPa SSE 0.3 km/h 1.9 km/h 58 % 0 mm
11:16 16.3 °C 8 °C 1028.3 hPa SSE 1.8 km/h 3.7 km/h 58 % 0 mm
11:21 16.9 °C 8.1 °C 1028.3 hPa SSE 1.4 km/h 3.7 km/h 56 % 0 mm
11:26 17.1 °C 7.4 °C 1028.3 hPa Calm   7.4 km/h 53 % 0 mm
11:31 17.1 °C 7.1 °C 1028.3 hPa SSE 3.7 km/h 5.6 km/h 52 % 0 mm
11:36 17.1 °C 8 °C 1028.3 hPa SSE 3.7 km/h 6.4 km/h 55 % 0 mm
11:41 17.7 °C 7.7 °C 1028.3 hPa SSE 3.2 km/h 6.4 km/h 52 % 0 mm
11:46 18 °C 7.4 °C 1028 hPa SSE 2.6 km/h 3.7 km/h 50 % 0 mm
11:51 18 °C 7.1 °C 1028 hPa SSE 0.2 km/h 1.9 km/h 49 % 0 mm
11:56 18.2 °C 7 °C 1028 hPa Calm     48 % 0 mm
12:06 18.7 °C 6.8 °C 1027.7 hPa SSE 1.9 km/h 5.6 km/h 46 % 0 mm
12:11 18.6 °C 6.4 °C 1027.7 hPa SSE 0.6 km/h 3.7 km/h 45 % 0 mm
12:16 18.7 °C 6.8 °C 1027.3 hPa SSE 3.2 km/h 6.4 km/h 46 % 0 mm
12:21 19 °C 5.8 °C 1027.3 hPa SSE 4.2 km/h 7.4 km/h 42 % 0 mm
12:26 19.3 °C 6.4 °C 1027.3 hPa SSE 5.6 km/h 7.4 km/h 43 % 0 mm
12:31 19.4 °C 5.1 °C 1027 hPa SSE 3.7 km/h 5.6 km/h 39 % 0 mm
12:36 19.7 °C 3.8 °C 1027 hPa SSE 5.5 km/h 8 km/h 35 % 0 mm
12:41 19.8 °C 1.3 °C 1027 hPa SSE 3.1 km/h 3.7 km/h 29 % 0 mm
12:46 19.9 °C 1.8 °C 1027 hPa SSE 1 km/h 3.7 km/h 30 % 0 mm
12:51 20.2 °C 3.4 °C 1026.6 hPa SSE 1.4 km/h 3.7 km/h 33 % 0 mm
12:56 20.2 °C 3.4 °C 1026.6 hPa SSE 5.6 km/h 9.3 km/h 33 % 0 mm
13:01 20 °C 3.7 °C 1026.6 hPa SSE 2.3 km/h 5.6 km/h 34 % 0 mm
13:06 20.2 °C 3.4 °C 1026.3 hPa Calm     33 % 0 mm
13:11 20.6 °C 1.4 °C 1026.3 hPa SSE 5.6 km/h 7.4 km/h 28 % 0 mm
13:15 20.7 °C 1.5 °C 1026.3 hPa SSE 0.6 km/h 1.9 km/h 28 % 0 mm
13:20 20.9 °C 1.7 °C 1026.3 hPa SSE 5 km/h 9.3 km/h 28 % 0 mm
13:25 21 °C 2.3 °C 1026.3 hPa SSE 1.9 km/h 6.4 km/h 29 % 0 mm
13:30 21.2 °C 2.4 °C 1026 hPa SSE 5.6 km/h 8 km/h 29 % 0 mm
13:35 21.2 °C 2.4 °C 1026 hPa SSE 1.8 km/h 3.2 km/h 29 % 0 mm
13:40 21 °C 2.3 °C 1026 hPa SSE 4.3 km/h 9.3 km/h 29 % 0 mm
13:45 21.3 °C 1 °C 1026 hPa SSE 3.1 km/h 5.6 km/h 26 % 0 mm
13:50 21.2 °C 0.4 °C 1026 hPa SSE 6.4 km/h 14.8 km/h 25 % 0 mm
13:55 21 °C 0.2 °C 1026 hPa SSE 1.1 km/h 3.7 km/h 25 % 0 mm
14:00 21.4 °C 0.6 °C 1026 hPa SSE 3.4 km/h 3.7 km/h 25 % 0 mm
14:05 21.6 °C 0.7 °C 1025.6 hPa SSE 4.8 km/h 7.4 km/h 25 % 0 mm
14:10 21.7 °C 0.8 °C 1025.6 hPa Calm     25 % 0 mm
14:15 21.8 °C 0.3 °C 1025.6 hPa SSE 7.2 km/h 9.3 km/h 24 % 0 mm
14:20 21.7 °C -1 °C 1025.6 hPa SSE 1.3 km/h 3.7 km/h 22 % 0 mm
14:25 21.5 °C -0.5 °C 1025.6 hPa SSE 5.3 km/h 7.4 km/h 23 % 0 mm
14:30 21.4 °C -1.2 °C 1025.6 hPa SSE 5.5 km/h 5.6 km/h 22 % 0 mm
14:35 21.5 °C -1.1 °C 1025.6 hPa SSE 3.4 km/h 5.6 km/h 22 % 0 mm
14:40 21.5 °C -1.8 °C 1025.6 hPa SSE 6.8 km/h 14.8 km/h 21 % 0 mm
14:45 21.4 °C -2.5 °C 1025.6 hPa SSE 9 km/h 13 km/h 20 % 0 mm
14:50 21.3 °C -2.6 °C 1025.6 hPa SSE 1.4 km/h 3.7 km/h 20 % 0 mm
14:55 21.7 °C -2.3 °C 1025.6 hPa SSE 2.9 km/h 5.6 km/h 20 % 0 mm
15:00 21.6 °C -3.8 °C 1025.6 hPa SSE 3.9 km/h 7.4 km/h 18 % 0 mm
15:05 21.6 °C -3.1 °C 1025.6 hPa SSE 6 km/h 9.7 km/h 19 % 0 mm
15:10 21.7 °C -3.7 °C 1025.6 hPa SSE 1.8 km/h 3.7 km/h 18 % 0 mm
15:15 21.6 °C -3.8 °C 1025.6 hPa SSE 1.8 km/h 5.6 km/h 18 % 0 mm
15:20 21.6 °C -4.5 °C 1025.6 hPa SSE 3.4 km/h 3.7 km/h 17 % 0 mm
15:25 21.7 °C -4.4 °C 1025.6 hPa SSE 5.6 km/h 8 km/h 17 % 0 mm
15:30 21.7 °C -4.4 °C 1025.6 hPa SSE 7.1 km/h 9.3 km/h 17 % 0 mm
15:35 21.7 °C -5.3 °C 1025.6 hPa SSE 2.6 km/h 5.6 km/h 16 % 0 mm
15:40 21.6 °C -4.5 °C 1025.6 hPa SSE 8.2 km/h 11.1 km/h 17 % 0 mm
15:45 21.6 °C -4.5 °C 1025.6 hPa SSE 7.7 km/h 9.7 km/h 17 % 0 mm
15:50 21.4 °C -4.7 °C 1025.6 hPa SSE 1.8 km/h 3.7 km/h 17 % 0 mm
15:55 21.6 °C -3.8 °C 1025.6 hPa SSE 0.3 km/h 3.2 km/h 18 % 0 mm
16:00 21.6 °C -4.6 °C 1025.3 hPa SSE 2.4 km/h 3.7 km/h 17 % 0 mm
16:05 21.5 °C -5.4 °C 1025.3 hPa SSE 7.4 km/h 9.3 km/h 16 % 0 mm
16:10 21.2 °C -4.8 °C 1025.3 hPa SSE 7.9 km/h 9.3 km/h 17 % 0 mm
16:15 21.1 °C -4.2 °C 1025.3 hPa SSE 3.7 km/h 5.6 km/h 18 % 0 mm
16:20 21.2 °C -4.1 °C 1025.3 hPa SSE 6.6 km/h 11.1 km/h 18 % 0 mm
16:25 21.2 °C -4.1 °C 1025.3 hPa SSE 3.7 km/h 5.6 km/h 18 % 0 mm
16:30 21.2 °C -4.1 °C 1025.3 hPa Calm     18 % 0 mm
16:35 21.6 °C -4.5 °C 1025.3 hPa Calm     17 % 0 mm
16:40 21.7 °C -4.4 °C 1025.3 hPa SSE 1.6 km/h 3.7 km/h 17 % 0 mm
16:45 21.7 °C -4.4 °C 1025.3 hPa SSE 0.3 km/h 3.2 km/h 17 % 0 mm
16:50 21.4 °C -3.9 °C 1025.3 hPa SSE 1.3 km/h 3.7 km/h 18 % 0 mm
16:55 21.3 °C -4.8 °C 1025.3 hPa SSE 2.3 km/h 5.6 km/h 17 % 0 mm
17:00 21.2 °C -4.1 °C 1025.3 hPa SSE 3.1 km/h 5.6 km/h 18 % 0 mm
17:05 21.1 °C -4.2 °C 1025.3 hPa SSE 2.4 km/h 3.7 km/h 18 % 0 mm
17:10 20.9 °C -4.3 °C 1025.3 hPa SSE 2.9 km/h 3.7 km/h 18 % 0 mm
17:15 20.8 °C -3 °C 1025.3 hPa Calm     20 % 0 mm
17:20 20.8 °C -2.4 °C 1025.3 hPa Calm   1.9 km/h 21 % 0 mm
17:25 20.9 °C -1.7 °C 1025.3 hPa Calm     22 % 0 mm
17:30 20.3 °C -2.1 °C 1025.3 hPa Calm     22 % 0 mm
17:35 19.5 °C -1.1 °C 1025.3 hPa Calm     25 % 0 mm
17:40 18.6 °C -1.3 °C 1025.3 hPa Calm     26 % 0 mm
17:45 17.9 °C -0.9 °C 1025.3 hPa SSE 1.9 km/h 3.7 km/h 28 % 0 mm
17:50 17.3 °C -0.4 °C 1025.3 hPa SSE 1.9 km/h 3.7 km/h 30 % 0 mm
17:55 16.7 °C -0.9 °C 1025.3 hPa Calm     30 % 0 mm
18:00 16.2 °C -1 °C 1025.6 hPa Calm     31 % 0 mm
18:05 15.7 °C -0.6 °C 1025.6 hPa Calm     33 % 0 mm
18:10 15.1 °C -0.3 °C 1025.6 hPa SSE 0.2 km/h 1.6 km/h 35 % 0 mm
18:15 14.7 °C 0.2 °C 1025.6 hPa Calm     37 % 0 mm
18:20 14.3 °C -0.2 °C 1025.6 hPa Calm     37 % 0 mm
18:25 14.1 °C -0.4 °C 1026 hPa Calm     37 % 0 mm
18:30 13.8 °C 0.1 °C 1026 hPa Calm     39 % 0 mm
18:35 13.4 °C -0.3 °C 1026 hPa Calm     39 % 0 mm
18:40 13.2 °C 0.2 °C 1026 hPa Calm     41 % 0 mm
18:45 12.9 °C -0.1 °C 1026 hPa Calm     41 % 0 mm
18:50 12.5 °C -0.1 °C 1026 hPa Calm     42 % 0 mm
18:51 12.5 °C -0.1 °C 1026 hPa Calm     42 % 0 mm
18:56 12.4 °C -0.2 °C 1026 hPa Calm     42 % 0 mm
19:01 12.3 °C -0.3 °C 1026 hPa Calm     42 % 0 mm
19:06 11.9 °C -0.3 °C 1026 hPa Calm     43 % 0 mm
19:44 11.2 °C 0 °C 1026 hPa Calm     46 % 0 mm
19:49 11.2 °C -0.1 °C 1026 hPa Calm     46 % 0 mm
19:54 11.1 °C -0.2 °C 1026 hPa Calm     46 % 0 mm
19:59 11 °C -0.2 °C 1026 hPa Calm     46 % 0 mm
20:04 10.9 °C -0.3 °C 1026 hPa Calm     46 % 0 mm
20:09 10.8 °C -0.7 °C 1026 hPa Calm     45 % 0 mm
20:14 10.8 °C -0.7 °C 1026 hPa Calm     45 % 0 mm
20:19 10.6 °C -0.2 °C 1026 hPa Calm     47 % 0 mm
20:24 10.3 °C -0.3 °C 1026.3 hPa Calm     48 % 0 mm
20:29 10.1 °C 0.1 °C 1026.3 hPa Calm   1.6 km/h 50 % 0 mm
20:34 10.1 °C 0.4 °C 1026.3 hPa Calm   1.9 km/h 51 % 0 mm
20:39 9.9 °C 0.3 °C 1026.3 hPa Calm     51 % 0 mm
20:44 9.8 °C -0.2 °C 1026.3 hPa Calm     50 % 0 mm
20:49 9.6 °C -0.1 °C 1026 hPa Calm     51 % 0 mm
20:54 9.6 °C -0.1 °C 1026 hPa Calm     51 % 0 mm
20:59 9.4 °C 0.1 °C 1026 hPa Calm     52 % 0 mm
21:04 9.2 °C 0.1 °C 1026 hPa Calm     53 % 0 mm
21:09 9 °C 0.2 °C 1026 hPa Calm     54 % 0 mm
21:14 8.8 °C 0.2 °C 1026 hPa Calm     55 % 0 mm
21:19 8.6 °C 0 °C 1026.3 hPa Calm     55 % 0 mm
21:24 8.4 °C 0.1 °C 1026.3 hPa Calm     56 % 0 mm
22:06 7.4 °C 0.2 °C 1026.3 hPa Calm     60 % 0 mm
22:16 7.4 °C 0.1 °C 1026 hPa Calm     60 % 0 mm
22:17 7.4 °C 0.3 °C 1026 hPa Calm     61 % 0 mm
22:22 7.3 °C 0.3 °C 1026 hPa Calm     61 % 0 mm
22:31 7.1 °C 0.6 °C 1026.3 hPa Calm     63 % 0 mm
22:36 7.1 °C 0.6 °C 1026 hPa Calm     63 % 0 mm
22:41 7.1 °C 0.3 °C 1026 hPa Calm     62 % 0 mm
22:46 7 °C 0.4 °C 1026 hPa Calm     63 % 0 mm
22:47 7 °C 0.4 °C 1026 hPa Calm     63 % 0 mm
22:52 6.8 °C 0.3 °C 1026 hPa Calm     63 % 0 mm
22:57 6.7 °C 0.3 °C 1026 hPa Calm     64 % 0 mm
23:02 6.6 °C 0.4 °C 1026 hPa Calm     65 % 0 mm
23:07 6.5 °C 0.6 °C 1026 hPa Calm     66 % 0 mm
23:12 6.5 °C 0.4 °C 1026 hPa Calm     65 % 0 mm
23:17 6.4 °C 0.5 °C 1026 hPa Calm     66 % 0 mm
23:22 6.2 °C 0.6 °C 1026 hPa Calm     67 % 0 mm
23:27 6.1 °C 0.4 °C 1025.6 hPa Calm     67 % 0 mm
23:32 6.1 °C 0.4 °C 1026 hPa Calm     67 % 0 mm
23:37 5.9 °C 0.4 °C 1026 hPa Calm     68 % 0 mm
23:40 5.8 °C 0.6 °C 1025.6 hPa Calm     69 % 0 mm
23:45 5.8 °C 0.6 °C 1025.6 hPa Calm     69 % 0 mm
23:50 5.8 °C 0.6 °C 1025.6 hPa Calm     69 % 0 mm
23:55 5.8 °C 0.5 °C 1025.6 hPa Calm     69 % 0 mm
Ararat Weather
Compliments of Weather Underground - 2.25 mb
Click here to send mail.


ABOUT

Live weather data from Ararat, Victoria, Australia, 3377
Data uploaded from Cumulus every 5 minutes to Weather Underground.
This site then downloads the raw data for formatting and display.
Metric and imperial data can be displayed. Graphs and historical data available.
Includes Sun and Moon times and rain image live from BOM.

Check out Ararat Weather on Facebook, Twitter and Google +

Help support ongoing costs by checking out the ads





Follow @AraratWeather